createdAt,value
2022-08-10T00:01:52.854Z,102681.00
2022-08-10T00:04:22.791Z,102688.00
2022-08-10T00:06:53.038Z,102688.00
2022-08-10T00:09:21.620Z,102679.00
2022-08-10T00:11:50.104Z,102680.00
2022-08-10T00:14:19.079Z,102662.00
2022-08-10T00:16:48.968Z,102648.00
2022-08-10T00:19:18.298Z,102673.00
2022-08-10T00:21:47.652Z,102681.00
2022-08-10T00:24:16.635Z,102679.00
2022-08-10T00:27:57.828Z,102679.00
2022-08-10T00:29:33.933Z,102685.00
2022-08-10T00:32:05.946Z,102655.00
2022-08-10T00:34:39.059Z,102670.00
2022-08-10T00:37:09.844Z,102667.00
2022-08-10T00:39:39.731Z,102656.00
2022-08-10T00:42:10.336Z,102631.00
2022-08-10T00:44:42.320Z,102677.00
2022-08-10T00:47:36.891Z,102674.00
2022-08-10T00:50:08.457Z,102655.00
2022-08-10T00:52:40.100Z,102677.00
2022-08-10T00:55:09.869Z,102663.00
2022-08-10T00:57:39.980Z,102672.00
2022-08-10T01:00:10.812Z,102629.00
2022-08-10T01:02:41.767Z,102676.00
2022-08-10T01:05:14.665Z,102660.00
2022-08-10T01:07:58.331Z,102639.00
2022-08-10T01:10:51.906Z,102663.00
2022-08-10T01:13:32.499Z,102664.00
2022-08-10T01:16:07.306Z,102654.00
2022-08-10T01:18:54.965Z,102644.00
2022-08-10T01:22:06.689Z,102627.00
2022-08-10T01:25:12.881Z,102654.00
2022-08-10T01:27:53.300Z,102652.00
2022-08-10T01:30:26.212Z,102641.00
2022-08-10T01:33:05.143Z,102631.00
2022-08-10T01:35:39.696Z,102664.00
2022-08-10T01:38:18.720Z,102654.00
2022-08-10T01:40:55.340Z,102644.00
2022-08-10T01:43:27.979Z,102612.00
2022-08-10T01:46:01.714Z,102645.00
2022-08-10T01:48:41.194Z,102623.00
2022-08-10T01:51:18.019Z,102613.00
2022-08-10T01:53:53.112Z,102628.00
2022-08-10T01:56:24.888Z,102640.00
2022-08-10T01:59:00.033Z,102649.00
2022-08-10T02:01:34.929Z,102651.00
2022-08-10T02:04:09.992Z,102648.00
2022-08-10T02:06:53.098Z,102612.00
2022-08-10T02:09:27.177Z,102639.00
2022-08-10T02:12:08.284Z,102612.00
2022-08-10T02:14:43.422Z,102610.00
2022-08-10T02:17:58.125Z,102642.00
2022-08-10T02:20:09.648Z,102643.00
2022-08-10T02:22:43.530Z,102618.00
2022-08-10T02:25:42.393Z,102630.00
2022-08-10T02:28:06.004Z,102610.00
2022-08-10T02:30:36.717Z,102634.00
2022-08-10T02:33:08.671Z,102594.00
2022-08-10T02:35:55.473Z,102611.00
2022-08-10T02:38:57.686Z,102630.00
2022-08-10T02:45:12.378Z,102632.00
2022-08-10T02:45:18.651Z,102614.00
2022-08-10T02:47:28.322Z,102585.00
2022-08-10T02:50:08.102Z,102627.00
2022-08-10T02:52:44.565Z,102607.00
2022-08-10T02:55:20.070Z,102565.00
2022-08-10T02:58:12.659Z,102608.00
2022-08-10T03:00:51.430Z,102624.00
2022-08-10T03:03:24.051Z,102626.00
2022-08-10T03:05:58.670Z,102618.00
2022-08-10T03:08:32.456Z,102605.00
2022-08-10T03:11:04.548Z,102603.00
2022-08-10T03:13:35.194Z,102576.00
2022-08-10T03:16:05.448Z,102587.00
2022-08-10T03:18:35.375Z,102586.00
2022-08-10T03:21:11.356Z,102624.00
2022-08-10T03:23:42.924Z,102633.00
2022-08-10T03:26:12.805Z,102617.00
2022-08-10T03:28:42.246Z,102618.00
2022-08-10T03:31:11.375Z,102604.00
2022-08-10T03:33:43.215Z,102606.00
2022-08-10T03:36:43.119Z,102554.00
2022-08-10T03:39:02.352Z,102573.00
2022-08-10T03:41:35.540Z,102616.00
2022-08-10T03:44:07.059Z,102619.00
2022-08-10T03:46:39.038Z,102605.00
2022-08-10T03:49:08.652Z,102615.00
2022-08-10T03:51:39.374Z,102566.00
2022-08-10T03:54:08.194Z,102602.00
2022-08-10T03:56:38.963Z,102590.00
2022-08-10T03:59:11.096Z,102607.00
2022-08-10T04:02:41.502Z,102580.00
2022-08-10T04:04:28.684Z,102599.00
2022-08-10T04:07:00.759Z,102572.00
2022-08-10T04:09:53.453Z,102550.00
2022-08-10T04:12:21.073Z,102536.00
2022-08-10T04:14:52.754Z,102568.00
2022-08-10T04:17:59.310Z,102592.00
2022-08-10T04:20:20.421Z,102562.00
2022-08-10T04:22:53.727Z,102598.00
2022-08-10T04:25:24.952Z,102598.00
2022-08-10T04:27:55.783Z,102567.00
2022-08-10T04:30:27.938Z,102602.00
2022-08-10T04:33:00.794Z,102588.00
2022-08-10T04:35:30.718Z,102599.00
2022-08-10T04:38:02.323Z,102603.00
2022-08-10T04:40:31.800Z,102599.00
2022-08-10T04:43:07.256Z,102588.00
2022-08-10T04:45:50.423Z,102593.00
2022-08-10T04:48:42.271Z,102587.00
2022-08-10T04:51:15.983Z,102586.00
2022-08-10T04:54:02.637Z,102585.00
2022-08-10T04:56:35.607Z,102598.00
2022-08-10T04:59:05.115Z,102592.00
2022-08-10T05:02:12.363Z,102572.00
2022-08-10T05:04:35.872Z,102585.00
2022-08-10T05:07:09.418Z,102557.00
2022-08-10T05:10:01.359Z,102548.00
2022-08-10T05:12:28.259Z,102612.00
2022-08-10T05:14:56.856Z,102577.00
2022-08-10T05:17:25.646Z,102570.00
2022-08-10T05:20:04.201Z,102603.00
2022-08-10T05:22:39.666Z,102614.00
2022-08-10T05:25:12.941Z,102606.00
2022-08-10T05:27:42.066Z,102606.00
2022-08-10T05:30:14.429Z,102605.00
2022-08-10T05:32:57.538Z,102620.00
2022-08-10T05:35:51.863Z,102616.00
2022-08-10T05:38:21.096Z,102603.00
2022-08-10T05:40:51.350Z,102578.00
2022-08-10T05:43:21.799Z,102615.00
2022-08-10T05:46:17.683Z,102607.00
2022-08-10T05:48:58.596Z,102627.00
2022-08-10T05:51:31.061Z,102623.00
2022-08-10T05:54:04.301Z,102608.00
2022-08-10T05:56:55.787Z,102635.00
2022-08-10T06:00:33.005Z,102611.00
2022-08-10T06:02:33.963Z,102634.00
2022-08-10T06:05:10.577Z,102640.00
2022-08-10T06:07:44.011Z,102624.00
2022-08-10T06:10:31.068Z,102629.00
2022-08-10T06:13:29.787Z,102619.00
2022-08-10T06:16:06.454Z,102624.00
2022-08-10T06:18:35.101Z,102622.00
2022-08-10T06:21:04.353Z,102620.00
2022-08-10T06:23:34.495Z,102617.00
2022-08-10T06:26:10.629Z,102594.00
2022-08-10T06:28:54.088Z,102600.00
2022-08-10T06:31:47.982Z,102616.00
2022-08-10T06:34:22.369Z,102624.00
2022-08-10T06:36:52.876Z,102599.00
2022-08-10T06:39:33.951Z,102612.00
2022-08-10T06:42:15.756Z,102614.00
2022-08-10T06:44:55.932Z,102616.00
2022-08-10T06:47:30.065Z,102620.00
2022-08-10T06:50:08.832Z,102615.00
2022-08-10T07:01:32.104Z,102624.00
2022-08-10T07:04:08.304Z,102623.00
2022-08-10T07:06:37.642Z,102627.00
2022-08-10T07:09:06.657Z,102618.00
2022-08-10T07:11:35.853Z,102632.00
2022-08-10T07:14:16.772Z,102617.00
2022-08-10T07:16:48.803Z,102629.00
2022-08-10T07:19:21.198Z,102615.00
2022-08-10T07:21:50.782Z,102633.00
2022-08-10T07:24:28.502Z,102626.00
2022-08-10T07:26:58.644Z,102632.00
2022-08-10T07:29:53.533Z,102633.00
2022-08-10T07:32:20.831Z,102607.00
2022-08-10T07:34:53.695Z,102625.00
2022-08-10T07:37:24.237Z,102615.00
2022-08-10T07:40:02.305Z,102622.00
2022-08-10T07:42:34.136Z,102616.00
2022-08-10T07:45:05.105Z,102619.00
2022-08-10T07:47:53.747Z,102626.00
2022-08-10T07:50:26.934Z,102630.00
2022-08-10T07:53:02.066Z,102628.00
2022-08-10T07:56:04.595Z,102628.00
2022-08-10T07:58:23.939Z,102642.00
2022-08-10T08:00:53.927Z,102643.00
2022-08-10T08:03:27.511Z,102638.00
2022-08-10T08:06:05.105Z,102642.00
2022-08-10T08:08:34.831Z,102644.00
2022-08-10T08:11:04.707Z,102647.00
2022-08-10T08:13:35.319Z,102643.00
2022-08-10T08:16:19.849Z,102639.00
2022-08-10T08:19:23.632Z,102644.00
2022-08-10T08:24:10.071Z,102631.00
2022-08-10T08:24:36.897Z,102646.00
2022-08-10T08:27:07.731Z,102634.00
2022-08-10T08:29:41.302Z,102638.00
2022-08-10T08:32:11.530Z,102641.00
2022-08-10T08:34:43.896Z,102646.00
2022-08-10T08:37:18.838Z,102649.00
2022-08-10T08:40:10.067Z,102646.00
2022-08-10T08:43:26.306Z,102645.00
2022-08-10T08:46:33.890Z,102634.00
2022-08-10T08:49:41.463Z,102633.00
2022-08-10T08:52:42.233Z,102644.00
2022-08-10T08:56:04.654Z,102645.00
2022-08-10T08:58:47.606Z,102645.00
2022-08-10T09:01:38.003Z,102654.00
2022-08-10T09:04:38.731Z,102644.00
2022-08-10T09:08:05.997Z,102635.00
2022-08-10T09:10:47.255Z,102643.00
2022-08-10T09:13:27.637Z,102633.00
2022-08-10T09:16:18.503Z,102638.00
2022-08-10T09:18:53.752Z,102630.00
2022-08-10T09:21:33.410Z,102630.00
2022-08-10T09:24:12.368Z,102628.00
2022-08-10T09:26:50.440Z,102631.00
2022-08-10T09:29:27.856Z,102620.00
2022-08-10T09:36:14.963Z,102627.00
2022-08-10T09:36:20.168Z,102615.00
2022-08-10T09:38:13.567Z,102610.00
2022-08-10T09:40:59.662Z,102614.00
2022-08-10T09:43:45.187Z,102609.00
2022-08-10T09:46:35.356Z,102600.00
2022-08-10T09:49:18.930Z,102601.00
2022-08-10T09:51:59.198Z,102605.00
2022-08-10T09:54:49.873Z,102602.00
2022-08-10T09:57:44.206Z,102590.00
2022-08-10T10:00:19.340Z,102597.00
2022-08-10T10:03:06.445Z,102593.00
2022-08-10T10:05:51.954Z,102580.00
2022-08-10T10:08:31.326Z,102591.00
2022-08-10T10:11:12.949Z,102576.00
2022-08-10T10:14:02.921Z,102581.00
2022-08-10T10:16:49.683Z,102580.00
2022-08-10T10:19:45.618Z,102567.00
2022-08-10T10:22:38.138Z,102574.00
2022-08-10T10:25:20.666Z,102564.00
2022-08-10T10:27:59.620Z,102567.00
2022-08-10T10:30:39.973Z,102553.00
2022-08-10T10:33:16.595Z,102555.00
2022-08-10T10:35:52.200Z,102553.00
2022-08-10T10:38:23.543Z,102548.00
2022-08-10T10:41:01.596Z,102536.00
2022-08-10T10:43:48.590Z,102548.00
2022-08-10T10:46:30.355Z,102539.00
2022-08-10T10:49:13.596Z,102546.00
2022-08-10T10:51:51.259Z,102543.00
2022-08-10T10:54:29.605Z,102525.00
2022-08-10T10:57:07.184Z,102533.00
2022-08-10T10:59:55.539Z,102524.00
2022-08-10T11:02:45.046Z,102534.00
2022-08-10T11:05:24.716Z,102534.00
2022-08-10T11:07:59.235Z,102530.00
2022-08-10T11:10:37.443Z,102519.00
2022-08-10T11:14:25.129Z,102523.00
2022-08-10T11:16:23.283Z,102527.00
2022-08-10T11:19:00.753Z,102525.00
2022-08-10T11:21:53.220Z,102521.00
2022-08-10T11:24:42.667Z,102527.00
2022-08-10T11:27:34.608Z,102504.00
2022-08-10T11:30:09.221Z,102517.00
2022-08-10T11:32:53.410Z,102516.00
2022-08-10T11:35:34.153Z,102517.00
2022-08-10T11:38:30.351Z,102511.00
2022-08-10T11:42:05.805Z,102517.00
2022-08-10T11:44:10.339Z,102512.00
2022-08-10T11:46:49.707Z,102514.00
2022-08-10T11:49:31.759Z,102507.00
2022-08-10T11:52:06.390Z,102498.00
2022-08-10T11:54:43.636Z,102497.00
2022-08-10T11:57:13.762Z,102502.00
2022-08-10T11:59:59.324Z,102487.00
2022-08-10T12:02:34.087Z,102499.00
2022-08-10T12:05:08.661Z,102488.00
2022-08-10T12:10:01.646Z,102493.00
2022-08-10T12:10:40.235Z,102494.00
2022-08-10T12:13:14.068Z,102492.00
2022-08-10T12:15:52.197Z,102480.00
2022-08-10T12:18:26.492Z,102480.00
2022-08-10T12:21:00.287Z,102466.00
2022-08-10T12:23:39.355Z,102461.00
2022-08-10T12:26:16.193Z,102465.00
2022-08-10T12:28:52.499Z,102476.00
2022-08-10T12:31:28.384Z,102460.00
2022-08-10T12:34:09.782Z,102471.00
2022-08-10T12:36:43.414Z,102470.00
2022-08-10T12:39:18.284Z,102471.00
2022-08-10T12:41:56.772Z,102469.00
2022-08-10T12:44:42.047Z,102468.00
2022-08-10T12:47:22.010Z,102458.00
2022-08-10T12:50:29.879Z,102454.00
2022-08-10T12:52:58.471Z,102459.00
2022-08-10T12:55:28.942Z,102453.00
2022-08-10T12:57:59.723Z,102452.00
2022-08-10T13:00:31.938Z,102451.00
2022-08-10T13:03:02.574Z,102446.00
2022-08-10T13:05:54.926Z,102442.00
2022-08-10T13:08:41.384Z,102443.00
2022-08-10T13:12:33.884Z,102439.00
2022-08-10T13:14:11.170Z,102442.00
2022-08-10T13:16:40.321Z,102439.00
2022-08-10T13:19:09.186Z,102426.00
2022-08-10T13:21:39.938Z,102430.00
2022-08-10T13:24:13.915Z,102426.00
2022-08-10T13:27:24.810Z,102416.00
2022-08-10T13:29:45.219Z,102411.00
2022-08-10T13:32:23.425Z,102409.00
2022-08-10T13:34:53.147Z,102409.00
2022-08-10T13:37:26.482Z,102403.00
2022-08-10T13:40:00.449Z,102404.00
2022-08-10T13:42:34.109Z,102401.00
2022-08-10T13:45:10.843Z,102403.00
2022-08-10T13:47:48.548Z,102406.00
2022-08-10T13:50:33.067Z,102389.00
2022-08-10T13:53:03.762Z,102397.00
2022-08-10T13:55:54.488Z,102372.00
2022-08-10T13:58:27.095Z,102386.00
2022-08-10T14:00:59.308Z,102384.00
2022-08-10T14:03:29.811Z,102384.00
2022-08-10T14:05:59.725Z,102375.00
2022-08-10T14:08:32.767Z,102373.00
2022-08-10T14:11:11.021Z,102381.00
2022-08-10T14:13:45.556Z,102358.00
2022-08-10T14:16:16.763Z,102372.00
2022-08-10T14:18:46.436Z,102375.00
2022-08-10T14:21:15.211Z,102363.00
2022-08-10T14:23:48.572Z,102357.00
2022-08-10T14:26:26.365Z,102354.00
2022-08-10T14:28:58.546Z,102360.00
2022-08-10T14:31:36.110Z,102356.00
2022-08-10T14:34:09.498Z,102355.00
2022-08-10T14:36:44.353Z,102357.00
2022-08-10T14:39:22.382Z,102352.00
2022-08-10T14:42:01.294Z,102352.00
2022-08-10T14:44:46.616Z,102347.00
2022-08-10T14:47:53.542Z,102346.00
2022-08-10T14:50:23.102Z,102347.00
2022-08-10T14:53:09.423Z,102334.00
2022-08-10T14:55:59.685Z,102343.00
2022-08-10T14:58:31.731Z,102334.00
2022-08-10T15:01:01.678Z,102342.00
2022-08-10T15:04:01.655Z,102342.00
2022-08-10T15:06:28.273Z,102331.00
2022-08-10T15:09:12.611Z,102328.00
2022-08-10T15:12:15.671Z,102335.00
2022-08-10T15:14:44.795Z,102328.00
2022-08-10T15:17:30.099Z,102332.00
2022-08-10T15:20:14.881Z,102339.00
2022-08-10T15:22:50.312Z,102341.00
2022-08-10T15:25:25.262Z,102342.00
2022-08-10T15:28:05.485Z,102342.00
2022-08-10T15:30:42.523Z,102335.00
2022-08-10T15:33:57.415Z,102332.00
2022-08-10T15:37:01.853Z,102308.00
2022-08-10T15:40:21.171Z,102323.00
2022-08-10T15:42:35.688Z,102322.00
2022-08-10T15:45:04.948Z,102322.00
2022-08-10T15:47:45.851Z,102316.00
2022-08-10T15:50:22.738Z,102312.00
2022-08-10T15:53:02.864Z,102300.00
2022-08-10T15:55:41.341Z,102314.00
2022-08-10T15:58:19.704Z,102310.00
2022-08-10T16:00:56.687Z,102311.00
2022-08-10T16:03:36.964Z,102316.00
2022-08-10T16:06:08.203Z,102304.00
2022-08-10T16:08:56.018Z,102310.00
2022-08-10T16:11:37.680Z,102317.00
2022-08-10T16:14:20.523Z,102309.00
2022-08-10T16:16:55.095Z,102300.00
2022-08-10T16:19:26.377Z,102302.00
2022-08-10T16:22:35.204Z,102285.00
2022-08-10T16:24:59.744Z,102293.00
2022-08-10T16:27:31.492Z,102281.00
2022-08-10T16:30:02.778Z,102287.00
2022-08-10T16:32:33.741Z,102281.00
2022-08-10T16:35:09.215Z,102286.00
2022-08-10T16:37:57.931Z,102283.00
2022-08-10T16:40:30.419Z,102283.00
2022-08-10T16:43:02.937Z,102282.00
2022-08-10T16:45:35.873Z,102282.00
2022-08-10T16:48:06.828Z,102282.00
2022-08-10T16:50:41.706Z,102278.00
2022-08-10T16:53:15.921Z,102274.00
2022-08-10T16:55:52.118Z,102276.00
2022-08-10T16:58:25.225Z,102276.00
2022-08-10T17:01:00.208Z,102267.00
2022-08-10T17:04:08.505Z,102248.00
2022-08-10T17:06:25.173Z,102246.00
2022-08-10T17:08:57.174Z,102262.00
2022-08-10T17:11:32.571Z,102258.00
2022-08-10T17:14:03.441Z,102263.00
2022-08-10T17:16:37.584Z,102260.00
2022-08-10T17:19:14.062Z,102261.00
2022-08-10T17:21:51.849Z,102266.00
2022-08-10T17:24:25.282Z,102258.00
2022-08-10T17:27:01.409Z,102257.00
2022-08-10T17:30:03.699Z,102250.00
2022-08-10T17:32:44.842Z,102252.00
2022-08-10T17:35:23.089Z,102252.00
2022-08-10T17:38:02.247Z,102252.00
2022-08-10T17:40:32.968Z,102247.00
2022-08-10T17:43:03.609Z,102240.00
2022-08-10T17:45:46.273Z,102251.00
2022-08-10T17:48:19.897Z,102249.00
2022-08-10T17:50:51.869Z,102243.00
2022-08-10T17:53:26.274Z,102239.00
2022-08-10T17:55:57.702Z,102245.00
2022-08-10T17:58:29.477Z,102241.00
2022-08-10T18:01:38.372Z,102242.00
2022-08-10T18:03:53.734Z,102235.00
2022-08-10T18:06:23.331Z,102253.00
2022-08-10T18:08:58.271Z,102252.00
2022-08-10T18:11:31.270Z,102255.00
2022-08-10T18:14:05.891Z,102260.00
2022-08-10T18:16:35.700Z,102255.00
2022-08-10T18:19:13.524Z,102261.00
2022-08-10T18:21:43.692Z,102266.00
2022-08-10T18:24:19.142Z,102258.00
2022-08-10T18:26:52.259Z,102254.00
2022-08-10T18:29:28.324Z,102252.00
2022-08-10T18:32:00.545Z,102264.00
2022-08-10T18:34:31.277Z,102260.00
2022-08-10T18:37:00.816Z,102256.00
2022-08-10T18:39:33.494Z,102265.00
2022-08-10T18:42:10.841Z,102266.00
2022-08-10T18:44:45.553Z,102264.00
2022-08-10T18:47:19.267Z,102274.00
2022-08-10T18:50:02.640Z,102261.00
2022-08-10T18:52:35.146Z,102261.00
2022-08-10T18:55:27.132Z,102274.00
2022-08-10T18:58:35.846Z,102272.00
2022-08-10T19:01:24.747Z,102273.00
2022-08-10T19:04:19.461Z,102273.00
2022-08-10T19:07:19.550Z,102265.00
2022-08-10T19:10:05.271Z,102273.00
2022-08-10T19:12:54.014Z,102274.00
2022-08-10T19:15:31.473Z,102270.00
2022-08-10T19:18:21.251Z,102282.00
2022-08-10T19:20:55.679Z,102281.00
2022-08-10T19:23:53.032Z,102268.00
2022-08-10T19:26:44.815Z,102267.00
2022-08-10T19:30:08.308Z,102263.00
2022-08-10T19:32:30.558Z,102275.00
2022-08-10T19:35:08.942Z,102275.00
2022-08-10T19:37:59.908Z,102276.00
2022-08-10T19:40:44.153Z,102272.00
2022-08-10T19:43:20.842Z,102263.00
2022-08-10T19:46:15.717Z,102277.00
2022-08-10T19:48:54.779Z,102279.00
2022-08-10T19:51:31.240Z,102273.00
2022-08-10T19:54:10.530Z,102271.00
2022-08-10T19:56:56.674Z,102274.00
2022-08-10T20:00:02.027Z,102274.00
2022-08-10T20:02:33.451Z,102281.00
2022-08-10T20:05:11.398Z,102284.00
2022-08-10T20:07:51.037Z,102284.00
2022-08-10T20:10:26.634Z,102265.00
2022-08-10T20:13:06.731Z,102282.00
2022-08-10T20:15:43.040Z,102285.00
2022-08-10T20:18:20.169Z,102280.00
2022-08-10T20:20:55.741Z,102279.00
2022-08-10T20:23:31.152Z,102282.00
2022-08-10T20:26:03.385Z,102290.00
2022-08-10T20:28:43.069Z,102285.00
2022-08-10T20:31:17.611Z,102282.00
2022-08-10T20:34:01.006Z,102282.00
2022-08-10T20:36:33.934Z,102283.00
2022-08-10T20:39:16.813Z,102280.00
2022-08-10T20:42:00.685Z,102279.00
2022-08-10T20:44:50.154Z,102280.00
2022-08-10T20:47:36.935Z,102288.00
2022-08-10T20:50:22.903Z,102279.00
2022-08-10T20:52:53.380Z,102282.00
2022-08-10T20:55:25.722Z,102274.00
2022-08-10T20:58:19.407Z,102282.00
2022-08-10T21:00:58.198Z,102287.00
2022-08-10T21:04:01.243Z,102295.00
2022-08-10T21:07:44.032Z,102297.00
2022-08-10T21:10:32.351Z,102301.00
2022-08-10T21:13:22.493Z,102293.00
2022-08-10T21:16:14.418Z,102294.00
2022-08-10T21:19:10.004Z,102292.00
2022-08-10T21:21:59.776Z,102293.00
2022-08-10T21:24:38.970Z,102288.00
2022-08-10T21:27:23.263Z,102289.00
2022-08-10T21:30:09.008Z,102296.00
2022-08-10T21:32:48.155Z,102293.00
2022-08-10T21:35:36.901Z,102291.00
2022-08-10T21:38:19.573Z,102300.00
2022-08-10T21:41:56.687Z,102279.00
2022-08-10T21:44:49.551Z,102308.00
2022-08-10T21:48:16.417Z,102288.00
2022-08-10T21:51:06.041Z,102293.00
2022-08-10T21:53:58.473Z,102299.00
2022-08-10T21:56:51.752Z,102289.00
2022-08-10T21:59:48.946Z,102300.00
2022-08-10T22:02:49.841Z,102294.00
2022-08-10T22:05:43.267Z,102299.00
2022-08-10T22:08:30.618Z,102292.00
2022-08-10T22:11:17.430Z,102293.00
2022-08-10T22:14:09.404Z,102283.00
2022-08-10T22:17:05.266Z,102294.00
2022-08-10T22:19:56.184Z,102290.00
2022-08-10T22:23:01.243Z,102296.00
2022-08-10T22:26:04.858Z,102292.00
2022-08-10T22:28:58.051Z,102286.00
2022-08-10T22:31:58.199Z,102291.00
2022-08-10T22:35:15.687Z,102284.00
2022-08-10T22:38:15.018Z,102292.00
2022-08-10T22:41:04.085Z,102279.00
2022-08-10T22:43:52.322Z,102274.00
2022-08-10T22:46:42.987Z,102286.00
2022-08-10T22:49:10.811Z,102281.00
2022-08-10T22:51:53.152Z,102282.00
2022-08-10T22:54:45.762Z,102276.00
2022-08-10T22:57:33.682Z,102263.00
2022-08-10T23:00:14.159Z,102270.00
2022-08-10T23:02:52.149Z,102268.00
2022-08-10T23:05:31.825Z,102269.00
2022-08-10T23:08:10.026Z,102280.00
2022-08-10T23:10:42.988Z,102279.00
2022-08-10T23:13:29.417Z,102279.00
2022-08-10T23:16:27.111Z,102279.00
2022-08-10T23:19:12.031Z,102283.00
2022-08-10T23:22:04.303Z,102278.00
2022-08-10T23:24:39.651Z,102268.00
2022-08-10T23:27:38.488Z,102266.00
2022-08-10T23:30:09.420Z,102260.00
2022-08-10T23:32:43.817Z,102264.00
2022-08-10T23:36:31.367Z,102267.00
2022-08-10T23:38:06.550Z,102267.00
2022-08-10T23:40:37.252Z,102265.00
2022-08-10T23:43:06.963Z,102267.00
2022-08-10T23:45:53.180Z,102264.00
2022-08-10T23:48:27.158Z,102262.00
2022-08-10T23:51:00.016Z,102262.00
2022-08-10T23:53:32.608Z,102267.00
2022-08-10T23:56:07.830Z,102267.00
2022-08-10T23:58:43.445Z,102265.00
